sensor_id;sensor_type;location;lat;lon;timestamp;temperature;humidity
20432;DHT22;10375;49.136;10.366;2023-04-24T00:00:01;10.40;99.90
20432;DHT22;10375;49.136;10.366;2023-04-24T00:02:28;10.40;99.90
20432;DHT22;10375;49.136;10.366;2023-04-24T00:04:55;10.40;99.90
20432;DHT22;10375;49.136;10.366;2023-04-24T00:07:23;10.40;99.90
20432;DHT22;10375;49.136;10.366;2023-04-24T00:09:50;10.40;99.90
20432;DHT22;10375;49.136;10.366;2023-04-24T00:12:17;10.40;99.90
20432;DHT22;10375;49.136;10.366;2023-04-24T00:14:44;10.40;99.90
20432;DHT22;10375;49.136;10.366;2023-04-24T00:17:11;10.40;99.90
20432;DHT22;10375;49.136;10.366;2023-04-24T00:19:39;10.30;99.90
20432;DHT22;10375;49.136;10.366;2023-04-24T00:22:06;10.30;99.90
20432;DHT22;10375;49.136;10.366;2023-04-24T00:24:33;10.30;99.90
20432;DHT22;10375;49.136;10.366;2023-04-24T00:27:00;10.30;99.90
20432;DHT22;10375;49.136;10.366;2023-04-24T00:29:27;10.30;99.90
20432;DHT22;10375;49.136;10.366;2023-04-24T00:31:55;10.30;99.90
20432;DHT22;10375;49.136;10.366;2023-04-24T00:34:22;10.30;99.90
20432;DHT22;10375;49.136;10.366;2023-04-24T00:36:49;10.30;99.90
20432;DHT22;10375;49.136;10.366;2023-04-24T00:39:19;10.30;99.90
20432;DHT22;10375;49.136;10.366;2023-04-24T00:41:47;10.30;99.90
20432;DHT22;10375;49.136;10.366;2023-04-24T00:44:15;10.30;99.90
20432;DHT22;10375;49.136;10.366;2023-04-24T00:46:42;10.30;99.90
20432;DHT22;10375;49.136;10.366;2023-04-24T00:49:10;10.30;99.90
20432;DHT22;10375;49.136;10.366;2023-04-24T00:51:38;10.30;99.90
20432;DHT22;10375;49.136;10.366;2023-04-24T00:54:07;10.30;99.90
20432;DHT22;10375;49.136;10.366;2023-04-24T00:56:34;10.30;99.90
20432;DHT22;10375;49.136;10.366;2023-04-24T00:59:01;10.20;99.90
20432;DHT22;10375;49.136;10.366;2023-04-24T01:01:29;10.20;99.90
20432;DHT22;10375;49.136;10.366;2023-04-24T01:03:57;10.20;99.90
20432;DHT22;10375;49.136;10.366;2023-04-24T01:06:28;10.20;99.90
20432;DHT22;10375;49.136;10.366;2023-04-24T01:08:58;10.20;99.90
20432;DHT22;10375;49.136;10.366;2023-04-24T01:11:27;10.20;99.90
20432;DHT22;10375;49.136;10.366;2023-04-24T01:13:54;10.20;99.90
20432;DHT22;10375;49.136;10.366;2023-04-24T01:16:21;10.20;99.90
20432;DHT22;10375;49.136;10.366;2023-04-24T01:18:48;10.20;99.90
20432;DHT22;10375;49.136;10.366;2023-04-24T01:21:16;10.10;99.90
20432;DHT22;10375;49.136;10.366;2023-04-24T01:23:45;10.20;99.90
20432;DHT22;10375;49.136;10.366;2023-04-24T01:26:14;10.20;99.90
20432;DHT22;10375;49.136;10.366;2023-04-24T01:28:41;10.20;99.90
20432;DHT22;10375;49.136;10.366;2023-04-24T01:31:09;10.10;99.90
20432;DHT22;10375;49.136;10.366;2023-04-24T01:33:36;10.10;99.90
20432;DHT22;10375;49.136;10.366;2023-04-24T01:36:03;10.10;99.90
20432;DHT22;10375;49.136;10.366;2023-04-24T01:38:31;10.10;99.90
20432;DHT22;10375;49.136;10.366;2023-04-24T01:40:58;10.10;99.90
20432;DHT22;10375;49.136;10.366;2023-04-24T01:43:25;10.10;99.90
20432;DHT22;10375;49.136;10.366;2023-04-24T01:45:52;10.10;99.90
20432;DHT22;10375;49.136;10.366;2023-04-24T01:48:19;10.10;99.90
20432;DHT22;10375;49.136;10.366;2023-04-24T01:50:47;10.00;99.90
20432;DHT22;10375;49.136;10.366;2023-04-24T01:53:14;10.00;99.90
20432;DHT22;10375;49.136;10.366;2023-04-24T01:55:41;10.00;99.90
20432;DHT22;10375;49.136;10.366;2023-04-24T01:58:08;10.00;99.90
20432;DHT22;10375;49.136;10.366;2023-04-24T02:00:35;10.00;99.90
20432;DHT22;10375;49.136;10.366;2023-04-24T02:03:03;10.00;99.90
20432;DHT22;10375;49.136;10.366;2023-04-24T02:05:30;10.00;99.90
20432;DHT22;10375;49.136;10.366;2023-04-24T02:07:57;9.90;99.90
20432;DHT22;10375;49.136;10.366;2023-04-24T02:10:24;9.90;99.90
20432;DHT22;10375;49.136;10.366;2023-04-24T02:12:52;9.80;99.90
20432;DHT22;10375;49.136;10.366;2023-04-24T02:15:19;9.80;99.90
20432;DHT22;10375;49.136;10.366;2023-04-24T02:17:46;9.90;99.90
20432;DHT22;10375;49.136;10.366;2023-04-24T02:20:13;9.90;99.90
20432;DHT22;10375;49.136;10.366;2023-04-24T02:22:40;9.80;99.90
20432;DHT22;10375;49.136;10.366;2023-04-24T02:25:07;9.80;99.90
20432;DHT22;10375;49.136;10.366;2023-04-24T02:27:35;9.90;99.90
20432;DHT22;10375;49.136;10.366;2023-04-24T02:30:02;9.90;99.90
20432;DHT22;10375;49.136;10.366;2023-04-24T02:32:29;9.90;99.90
20432;DHT22;10375;49.136;10.366;2023-04-24T02:34:57;9.90;99.90
20432;DHT22;10375;49.136;10.366;2023-04-24T02:37:24;9.90;99.90
20432;DHT22;10375;49.136;10.366;2023-04-24T02:39:52;9.80;99.90
20432;DHT22;10375;49.136;10.366;2023-04-24T02:42:19;9.80;99.90
20432;DHT22;10375;49.136;10.366;2023-04-24T02:44:46;9.70;99.90
20432;DHT22;10375;49.136;10.366;2023-04-24T02:47:13;9.70;99.90
20432;DHT22;10375;49.136;10.366;2023-04-24T02:49:40;9.60;99.90
20432;DHT22;10375;49.136;10.366;2023-04-24T02:52:08;9.50;99.90
20432;DHT22;10375;49.136;10.366;2023-04-24T02:54:35;9.50;99.90
20432;DHT22;10375;49.136;10.366;2023-04-24T02:57:02;9.50;99.90
20432;DHT22;10375;49.136;10.366;2023-04-24T02:59:30;9.40;99.90
20432;DHT22;10375;49.136;10.366;2023-04-24T03:01:57;9.40;99.90
20432;DHT22;10375;49.136;10.366;2023-04-24T03:04:24;9.40;99.90
20432;DHT22;10375;49.136;10.366;2023-04-24T03:06:52;9.40;99.90
20432;DHT22;10375;49.136;10.366;2023-04-24T03:09:21;9.40;99.90
20432;DHT22;10375;49.136;10.366;2023-04-24T03:11:49;9.40;99.90
20432;DHT22;10375;49.136;10.366;2023-04-24T03:14:16;9.40;99.90
20432;DHT22;10375;49.136;10.366;2023-04-24T03:16:43;9.40;99.90
20432;DHT22;10375;49.136;10.366;2023-04-24T03:19:11;9.30;99.90
20432;DHT22;10375;49.136;10.366;2023-04-24T03:21:39;9.30;99.90
20432;DHT22;10375;49.136;10.366;2023-04-24T03:24:08;9.20;99.90
20432;DHT22;10375;49.136;10.366;2023-04-24T03:26:35;9.20;99.90
20432;DHT22;10375;49.136;10.366;2023-04-24T03:29:03;9.20;99.90
20432;DHT22;10375;49.136;10.366;2023-04-24T03:31:30;9.20;99.90
20432;DHT22;10375;49.136;10.366;2023-04-24T03:33:57;9.10;99.90
20432;DHT22;10375;49.136;10.366;2023-04-24T03:36:24;9.20;99.90
20432;DHT22;10375;49.136;10.366;2023-04-24T03:38:52;9.20;99.90
20432;DHT22;10375;49.136;10.366;2023-04-24T03:41:19;9.20;99.90
20432;DHT22;10375;49.136;10.366;2023-04-24T03:43:47;9.20;99.90
20432;DHT22;10375;49.136;10.366;2023-04-24T03:46:14;9.20;99.90
20432;DHT22;10375;49.136;10.366;2023-04-24T03:48:42;9.10;99.90
20432;DHT22;10375;49.136;10.366;2023-04-24T03:51:09;9.00;99.90
20432;DHT22;10375;49.136;10.366;2023-04-24T03:53:36;9.10;99.90
20432;DHT22;10375;49.136;10.366;2023-04-24T03:56:03;9.10;99.90
20432;DHT22;10375;49.136;10.366;2023-04-24T03:58:30;9.10;99.90
20432;DHT22;10375;49.136;10.366;2023-04-24T04:00:57;9.20;99.90
20432;DHT22;10375;49.136;10.366;2023-04-24T04:03:25;9.20;99.90
20432;DHT22;10375;49.136;10.366;2023-04-24T04:05:53;9.30;99.90
20432;DHT22;10375;49.136;10.366;2023-04-24T04:08:20;9.30;99.90
20432;DHT22;10375;49.136;10.366;2023-04-24T04:10:48;9.30;99.90
20432;DHT22;10375;49.136;10.366;2023-04-24T04:13:15;9.30;99.90
20432;DHT22;10375;49.136;10.366;2023-04-24T04:15:42;9.20;99.90
20432;DHT22;10375;49.136;10.366;2023-04-24T04:18:09;9.30;99.90
20432;DHT22;10375;49.136;10.366;2023-04-24T04:20:36;9.20;99.90
20432;DHT22;10375;49.136;10.366;2023-04-24T04:23:03;9.20;99.90
20432;DHT22;10375;49.136;10.366;2023-04-24T04:25:30;9.20;99.90
20432;DHT22;10375;49.136;10.366;2023-04-24T04:27:57;9.30;99.90
20432;DHT22;10375;49.136;10.366;2023-04-24T04:30:26;9.30;99.90
20432;DHT22;10375;49.136;10.366;2023-04-24T04:32:53;9.30;99.90
20432;DHT22;10375;49.136;10.366;2023-04-24T04:35:20;9.40;99.90
20432;DHT22;10375;49.136;10.366;2023-04-24T04:37:48;9.50;99.90
20432;DHT22;10375;49.136;10.366;2023-04-24T04:40:16;9.50;99.90
20432;DHT22;10375;49.136;10.366;2023-04-24T04:42:43;9.50;99.90
20432;DHT22;10375;49.136;10.366;2023-04-24T04:45:12;9.60;99.90
20432;DHT22;10375;49.136;10.366;2023-04-24T04:47:39;9.60;99.90
20432;DHT22;10375;49.136;10.366;2023-04-24T04:50:07;9.60;99.90
20432;DHT22;10375;49.136;10.366;2023-04-24T04:52:34;9.60;99.90
20432;DHT22;10375;49.136;10.366;2023-04-24T04:55:01;9.70;99.90
20432;DHT22;10375;49.136;10.366;2023-04-24T04:57:28;9.70;99.90
20432;DHT22;10375;49.136;10.366;2023-04-24T04:59:56;9.70;99.90
20432;DHT22;10375;49.136;10.366;2023-04-24T05:02:24;9.70;99.90
20432;DHT22;10375;49.136;10.366;2023-04-24T05:04:51;9.70;99.90
20432;DHT22;10375;49.136;10.366;2023-04-24T05:07:18;9.70;99.90
20432;DHT22;10375;49.136;10.366;2023-04-24T05:09:45;9.80;99.90
20432;DHT22;10375;49.136;10.366;2023-04-24T05:12:12;9.80;99.90
20432;DHT22;10375;49.136;10.366;2023-04-24T05:14:39;9.80;99.90
20432;DHT22;10375;49.136;10.366;2023-04-24T05:17:07;9.70;99.90
20432;DHT22;10375;49.136;10.366;2023-04-24T05:19:34;9.70;99.90
20432;DHT22;10375;49.136;10.366;2023-04-24T05:22:02;9.70;99.90
20432;DHT22;10375;49.136;10.366;2023-04-24T05:24:30;9.70;99.90
20432;DHT22;10375;49.136;10.366;2023-04-24T05:26:58;9.70;99.90
20432;DHT22;10375;49.136;10.366;2023-04-24T05:29:25;9.70;99.90
20432;DHT22;10375;49.136;10.366;2023-04-24T05:31:53;9.80;99.90
20432;DHT22;10375;49.136;10.366;2023-04-24T05:34:20;9.80;99.90
20432;DHT22;10375;49.136;10.366;2023-04-24T05:36:47;9.80;99.90
20432;DHT22;10375;49.136;10.366;2023-04-24T05:39:14;9.90;99.90
20432;DHT22;10375;49.136;10.366;2023-04-24T05:41:42;9.90;99.90
20432;DHT22;10375;49.136;10.366;2023-04-24T05:44:09;9.90;99.90
20432;DHT22;10375;49.136;10.366;2023-04-24T05:46:36;10.00;99.90
20432;DHT22;10375;49.136;10.366;2023-04-24T05:49:12;10.00;99.90
20432;DHT22;10375;49.136;10.366;2023-04-24T05:51:40;10.00;99.90
20432;DHT22;10375;49.136;10.366;2023-04-24T05:54:10;10.00;99.90
20432;DHT22;10375;49.136;10.366;2023-04-24T05:56:39;10.00;99.90
20432;DHT22;10375;49.136;10.366;2023-04-24T05:59:18;9.90;99.90
20432;DHT22;10375;49.136;10.366;2023-04-24T06:01:45;9.90;99.90
20432;DHT22;10375;49.136;10.366;2023-04-24T06:04:13;9.90;99.90
20432;DHT22;10375;49.136;10.366;2023-04-24T06:06:40;9.90;99.90
20432;DHT22;10375;49.136;10.366;2023-04-24T06:09:08;10.00;99.90
20432;DHT22;10375;49.136;10.366;2023-04-24T06:11:35;10.00;99.90
20432;DHT22;10375;49.136;10.366;2023-04-24T06:14:02;10.10;99.90
20432;DHT22;10375;49.136;10.366;2023-04-24T06:16:29;10.10;99.90
20432;DHT22;10375;49.136;10.366;2023-04-24T06:18:57;10.20;99.90
20432;DHT22;10375;49.136;10.366;2023-04-24T06:21:25;10.30;99.90
20432;DHT22;10375;49.136;10.366;2023-04-24T06:23:52;10.40;99.90
20432;DHT22;10375;49.136;10.366;2023-04-24T06:26:19;10.60;99.90
20432;DHT22;10375;49.136;10.366;2023-04-24T06:28:46;10.70;99.90
20432;DHT22;10375;49.136;10.366;2023-04-24T06:31:13;10.70;99.90
20432;DHT22;10375;49.136;10.366;2023-04-24T06:33:41;10.60;99.90
20432;DHT22;10375;49.136;10.366;2023-04-24T06:36:08;10.40;99.90
20432;DHT22;10375;49.136;10.366;2023-04-24T06:38:35;10.30;99.90
20432;DHT22;10375;49.136;10.366;2023-04-24T06:41:02;10.30;99.90
20432;DHT22;10375;49.136;10.366;2023-04-24T06:43:32;10.30;99.90
20432;DHT22;10375;49.136;10.366;2023-04-24T06:46:00;10.40;99.90
20432;DHT22;10375;49.136;10.366;2023-04-24T06:48:27;10.60;99.90
20432;DHT22;10375;49.136;10.366;2023-04-24T06:50:54;10.70;99.90
20432;DHT22;10375;49.136;10.366;2023-04-24T06:53:21;10.90;99.90
20432;DHT22;10375;49.136;10.366;2023-04-24T06:55:48;10.90;99.90
20432;DHT22;10375;49.136;10.366;2023-04-24T06:58:15;11.00;99.90
20432;DHT22;10375;49.136;10.366;2023-04-24T07:00:42;11.10;99.90
20432;DHT22;10375;49.136;10.366;2023-04-24T07:03:10;11.10;99.90
20432;DHT22;10375;49.136;10.366;2023-04-24T07:05:37;11.10;99.90
20432;DHT22;10375;49.136;10.366;2023-04-24T07:08:05;11.10;99.90
20432;DHT22;10375;49.136;10.366;2023-04-24T07:10:33;11.10;99.90
20432;DHT22;10375;49.136;10.366;2023-04-24T07:13:02;11.30;99.90
20432;DHT22;10375;49.136;10.366;2023-04-24T07:15:29;11.30;99.90
20432;DHT22;10375;49.136;10.366;2023-04-24T07:17:56;11.70;99.90
20432;DHT22;10375;49.136;10.366;2023-04-24T07:20:23;11.70;99.90
20432;DHT22;10375;49.136;10.366;2023-04-24T07:22:51;11.50;99.90
20432;DHT22;10375;49.136;10.366;2023-04-24T07:25:18;11.20;99.90
20432;DHT22;10375;49.136;10.366;2023-04-24T07:27:45;11.60;99.90
20432;DHT22;10375;49.136;10.366;2023-04-24T07:30:13;12.20;99.90
20432;DHT22;10375;49.136;10.366;2023-04-24T07:32:42;12.40;99.90
20432;DHT22;10375;49.136;10.366;2023-04-24T07:35:09;12.30;99.90
20432;DHT22;10375;49.136;10.366;2023-04-24T07:37:37;12.20;99.90
20432;DHT22;10375;49.136;10.366;2023-04-24T07:40:04;12.30;99.90
20432;DHT22;10375;49.136;10.366;2023-04-24T07:42:31;12.60;99.90
20432;DHT22;10375;49.136;10.366;2023-04-24T07:45:01;13.80;99.90
20432;DHT22;10375;49.136;10.366;2023-04-24T07:47:29;15.10;99.90
20432;DHT22;10375;49.136;10.366;2023-04-24T07:49:56;16.20;99.90
20432;DHT22;10375;49.136;10.366;2023-04-24T07:52:24;15.90;99.90
20432;DHT22;10375;49.136;10.366;2023-04-24T07:54:51;15.20;99.90
20432;DHT22;10375;49.136;10.366;2023-04-24T07:57:25;14.70;99.90
20432;DHT22;10375;49.136;10.366;2023-04-24T07:59:52;14.10;99.90
20432;DHT22;10375;49.136;10.366;2023-04-24T08:02:19;13.90;99.90
20432;DHT22;10375;49.136;10.366;2023-04-24T08:04:48;13.80;99.90
20432;DHT22;10375;49.136;10.366;2023-04-24T08:07:15;13.90;99.90
20432;DHT22;10375;49.136;10.366;2023-04-24T08:09:43;14.00;99.90
20432;DHT22;10375;49.136;10.366;2023-04-24T08:12:11;14.20;99.90
20432;DHT22;10375;49.136;10.366;2023-04-24T08:14:38;14.60;99.90
20432;DHT22;10375;49.136;10.366;2023-04-24T08:17:05;15.20;99.90
20432;DHT22;10375;49.136;10.366;2023-04-24T08:19:32;16.00;99.90
20432;DHT22;10375;49.136;10.366;2023-04-24T08:21:59;16.60;99.90
20432;DHT22;10375;49.136;10.366;2023-04-24T08:24:26;16.60;99.90
20432;DHT22;10375;49.136;10.366;2023-04-24T08:26:53;15.90;99.90
20432;DHT22;10375;49.136;10.366;2023-04-24T08:29:23;15.40;99.90
20432;DHT22;10375;49.136;10.366;2023-04-24T08:31:50;15.20;99.90
20432;DHT22;10375;49.136;10.366;2023-04-24T08:34:18;15.40;99.90
20432;DHT22;10375;49.136;10.366;2023-04-24T08:36:45;15.50;99.90
20432;DHT22;10375;49.136;10.366;2023-04-24T08:39:13;15.60;99.90
20432;DHT22;10375;49.136;10.366;2023-04-24T08:41:44;15.40;99.90
20432;DHT22;10375;49.136;10.366;2023-04-24T08:44:12;15.60;99.90
20432;DHT22;10375;49.136;10.366;2023-04-24T08:46:45;15.60;99.90
20432;DHT22;10375;49.136;10.366;2023-04-24T08:49:15;15.20;99.90
20432;DHT22;10375;49.136;10.366;2023-04-24T08:51:45;14.40;99.90
20432;DHT22;10375;49.136;10.366;2023-04-24T08:54:14;13.90;99.90
20432;DHT22;10375;49.136;10.366;2023-04-24T08:56:43;13.90;99.90
20432;DHT22;10375;49.136;10.366;2023-04-24T08:59:11;14.30;99.90
20432;DHT22;10375;49.136;10.366;2023-04-24T09:01:40;14.80;99.90
20432;DHT22;10375;49.136;10.366;2023-04-24T09:04:09;15.20;99.90
20432;DHT22;10375;49.136;10.366;2023-04-24T09:06:38;15.40;99.90
20432;DHT22;10375;49.136;10.366;2023-04-24T09:09:05;15.50;99.90
20432;DHT22;10375;49.136;10.366;2023-04-24T09:11:32;15.50;99.90
20432;DHT22;10375;49.136;10.366;2023-04-24T09:14:00;15.80;99.90
20432;DHT22;10375;49.136;10.366;2023-04-24T09:16:27;15.70;99.90
20432;DHT22;10375;49.136;10.366;2023-04-24T09:18:55;15.70;99.90
20432;DHT22;10375;49.136;10.366;2023-04-24T09:21:22;15.90;99.90
20432;DHT22;10375;49.136;10.366;2023-04-24T09:24:20;15.50;99.90
20432;DHT22;10375;49.136;10.366;2023-04-24T09:26:56;14.80;99.90
20432;DHT22;10375;49.136;10.366;2023-04-24T09:29:25;15.30;99.90
20432;DHT22;10375;49.136;10.366;2023-04-24T09:31:52;16.00;99.90
20432;DHT22;10375;49.136;10.366;2023-04-24T09:34:26;16.50;99.90
20432;DHT22;10375;49.136;10.366;2023-04-24T09:36:54;17.00;99.90
20432;DHT22;10375;49.136;10.366;2023-04-24T09:39:21;17.20;99.90
20432;DHT22;10375;49.136;10.366;2023-04-24T09:41:50;16.80;99.50
20432;DHT22;10375;49.136;10.366;2023-04-24T09:44:22;16.70;99.90
20432;DHT22;10375;49.136;10.366;2023-04-24T09:46:52;16.70;99.00
20432;DHT22;10375;49.136;10.366;2023-04-24T09:49:27;16.50;98.20
20432;DHT22;10375;49.136;10.366;2023-04-24T09:52:08;15.80;99.10
20432;DHT22;10375;49.136;10.366;2023-04-24T09:54:37;15.70;99.90
20432;DHT22;10375;49.136;10.366;2023-04-24T09:57:07;15.50;97.30
20432;DHT22;10375;49.136;10.366;2023-04-24T09:59:34;16.00;99.90
20432;DHT22;10375;49.136;10.366;2023-04-24T10:02:03;16.60;97.10
20432;DHT22;10375;49.136;10.366;2023-04-24T10:04:54;16.90;96.10
20432;DHT22;10375;49.136;10.366;2023-04-24T10:07:25;17.10;95.90
20432;DHT22;10375;49.136;10.366;2023-04-24T10:09:53;17.20;95.50
20432;DHT22;10375;49.136;10.366;2023-04-24T10:12:21;17.10;96.70
20432;DHT22;10375;49.136;10.366;2023-04-24T10:14:48;17.30;97.10
20432;DHT22;10375;49.136;10.366;2023-04-24T10:17:15;17.80;96.70
20432;DHT22;10375;49.136;10.366;2023-04-24T10:19:43;17.10;94.00
20432;DHT22;10375;49.136;10.366;2023-04-24T10:22:10;16.60;94.60
20432;DHT22;10375;49.136;10.366;2023-04-24T10:24:38;16.60;95.40
20432;DHT22;10375;49.136;10.366;2023-04-24T10:27:06;16.40;95.40
20432;DHT22;10375;49.136;10.366;2023-04-24T10:29:35;16.10;95.80
20432;DHT22;10375;49.136;10.366;2023-04-24T10:32:03;16.20;97.30
20432;DHT22;10375;49.136;10.366;2023-04-24T10:34:30;16.90;98.00
20432;DHT22;10375;49.136;10.366;2023-04-24T10:36:57;17.30;96.10
20432;DHT22;10375;49.136;10.366;2023-04-24T10:39:24;17.20;96.10
20432;DHT22;10375;49.136;10.366;2023-04-24T10:41:55;16.90;96.40
20432;DHT22;10375;49.136;10.366;2023-04-24T10:44:24;16.70;95.70
20432;DHT22;10375;49.136;10.366;2023-04-24T10:46:55;15.90;95.50
20432;DHT22;10375;49.136;10.366;2023-04-24T10:49:30;15.40;95.60
20432;DHT22;10375;49.136;10.366;2023-04-24T10:52:04;15.40;96.20
20432;DHT22;10375;49.136;10.366;2023-04-24T10:59:49;14.60;96.40
20432;DHT22;10375;49.136;10.366;2023-04-24T11:02:18;14.40;98.00
20432;DHT22;10375;49.136;10.366;2023-04-24T11:04:45;14.30;98.00
20432;DHT22;10375;49.136;10.366;2023-04-24T11:07:13;14.20;97.90
20432;DHT22;10375;49.136;10.366;2023-04-24T11:09:42;13.90;97.60
20432;DHT22;10375;49.136;10.366;2023-04-24T11:12:11;13.60;98.20
20432;DHT22;10375;49.136;10.366;2023-04-24T11:17:37;14.20;99.90
20432;DHT22;10375;49.136;10.366;2023-04-24T11:20:11;15.30;99.40
20432;DHT22;10375;49.136;10.366;2023-04-24T11:22:54;15.80;97.60
20432;DHT22;10375;49.136;10.366;2023-04-24T11:25:22;16.10;96.70
20432;DHT22;10375;49.136;10.366;2023-04-24T11:27:50;15.80;98.10
20432;DHT22;10375;49.136;10.366;2023-04-24T11:30:19;15.90;97.90
20432;DHT22;10375;49.136;10.366;2023-04-24T11:32:53;15.90;97.80
20432;DHT22;10375;49.136;10.366;2023-04-24T11:35:21;15.90;97.70
20432;DHT22;10375;49.136;10.366;2023-04-24T11:37:53;15.90;96.80
20432;DHT22;10375;49.136;10.366;2023-04-24T11:40:23;15.80;99.10
20432;DHT22;10375;49.136;10.366;2023-04-24T11:42:53;16.40;95.50
20432;DHT22;10375;49.136;10.366;2023-04-24T11:47:50;16.50;96.80
20432;DHT22;10375;49.136;10.366;2023-04-24T11:50:21;16.20;95.60
20432;DHT22;10375;49.136;10.366;2023-04-24T11:52:49;15.90;94.60
20432;DHT22;10375;49.136;10.366;2023-04-24T11:57:45;15.00;96.70
20432;DHT22;10375;49.136;10.366;2023-04-24T12:00:16;14.60;98.30
20432;DHT22;10375;49.136;10.366;2023-04-24T12:02:44;14.20;99.40
20432;DHT22;10375;49.136;10.366;2023-04-24T12:05:24;13.70;99.90
20432;DHT22;10375;49.136;10.366;2023-04-24T12:07:53;13.20;99.90
20432;DHT22;10375;49.136;10.366;2023-04-24T12:10:22;12.80;99.20
20432;DHT22;10375;49.136;10.366;2023-04-24T12:12:50;12.50;99.90
20432;DHT22;10375;49.136;10.366;2023-04-24T12:15:20;12.50;99.90
20432;DHT22;10375;49.136;10.366;2023-04-24T12:17:49;12.50;99.90
20432;DHT22;10375;49.136;10.366;2023-04-24T12:20:28;12.80;99.90
20432;DHT22;10375;49.136;10.366;2023-04-24T12:22:57;13.40;99.90
20432;DHT22;10375;49.136;10.366;2023-04-24T12:25:34;14.20;99.90
20432;DHT22;10375;49.136;10.366;2023-04-24T12:30:40;15.80;97.10
20432;DHT22;10375;49.136;10.366;2023-04-24T12:33:07;16.00;96.70
20432;DHT22;10375;49.136;10.366;2023-04-24T12:35:35;15.80;97.20
20432;DHT22;10375;49.136;10.366;2023-04-24T12:38:07;15.90;97.10
20432;DHT22;10375;49.136;10.366;2023-04-24T12:40:35;16.00;97.40
20432;DHT22;10375;49.136;10.366;2023-04-24T12:43:13;16.10;97.30
20432;DHT22;10375;49.136;10.366;2023-04-24T12:45:41;15.90;96.50
20432;DHT22;10375;49.136;10.366;2023-04-24T12:48:08;15.40;96.60
20432;DHT22;10375;49.136;10.366;2023-04-24T12:50:35;14.80;97.50
20432;DHT22;10375;49.136;10.366;2023-04-24T12:53:02;14.30;97.00
20432;DHT22;10375;49.136;10.366;2023-04-24T12:55:29;13.80;97.10
20432;DHT22;10375;49.136;10.366;2023-04-24T12:57:56;13.30;99.20
20432;DHT22;10375;49.136;10.366;2023-04-24T13:00:23;12.90;99.20
20432;DHT22;10375;49.136;10.366;2023-04-24T13:02:50;12.70;99.20
20432;DHT22;10375;49.136;10.366;2023-04-24T13:05:18;12.60;99.90
20432;DHT22;10375;49.136;10.366;2023-04-24T13:07:47;12.40;99.90
20432;DHT22;10375;49.136;10.366;2023-04-24T13:10:14;12.20;99.90
20432;DHT22;10375;49.136;10.366;2023-04-24T13:12:42;11.90;99.90
20432;DHT22;10375;49.136;10.366;2023-04-24T13:15:12;11.80;99.90
20432;DHT22;10375;49.136;10.366;2023-04-24T13:17:40;11.70;99.90
20432;DHT22;10375;49.136;10.366;2023-04-24T13:20:07;12.00;99.90
20432;DHT22;10375;49.136;10.366;2023-04-24T13:22:35;12.60;99.90
20432;DHT22;10375;49.136;10.366;2023-04-24T13:25:02;13.60;99.90
20432;DHT22;10375;49.136;10.366;2023-04-24T13:27:30;14.60;99.90
20432;DHT22;10375;49.136;10.366;2023-04-24T13:29:57;15.30;99.90
20432;DHT22;10375;49.136;10.366;2023-04-24T13:32:24;15.70;98.90
20432;DHT22;10375;49.136;10.366;2023-04-24T13:34:52;15.90;98.30
20432;DHT22;10375;49.136;10.366;2023-04-24T13:37:19;16.00;98.20
20432;DHT22;10375;49.136;10.366;2023-04-24T13:39:46;15.40;97.60
20432;DHT22;10375;49.136;10.366;2023-04-24T13:42:13;14.60;98.20
20432;DHT22;10375;49.136;10.366;2023-04-24T13:44:41;14.30;98.60
20432;DHT22;10375;49.136;10.366;2023-04-24T13:47:08;14.10;99.10
20432;DHT22;10375;49.136;10.366;2023-04-24T13:49:35;14.20;99.70
20432;DHT22;10375;49.136;10.366;2023-04-24T13:52:02;14.30;99.30
20432;DHT22;10375;49.136;10.366;2023-04-24T13:54:29;14.50;99.40
20432;DHT22;10375;49.136;10.366;2023-04-24T13:56:58;14.60;98.70
20432;DHT22;10375;49.136;10.366;2023-04-24T13:59:25;14.50;98.80
20432;DHT22;10375;49.136;10.366;2023-04-24T14:01:52;14.70;98.80
20432;DHT22;10375;49.136;10.366;2023-04-24T14:04:19;14.70;98.80
20432;DHT22;10375;49.136;10.366;2023-04-24T14:06:47;14.30;99.20
20432;DHT22;10375;49.136;10.366;2023-04-24T14:09:14;14.00;99.60
20432;DHT22;10375;49.136;10.366;2023-04-24T14:11:41;13.50;99.60
20432;DHT22;10375;49.136;10.366;2023-04-24T14:14:09;12.60;99.90
20432;DHT22;10375;49.136;10.366;2023-04-24T14:16:36;12.40;99.90
20432;DHT22;10375;49.136;10.366;2023-04-24T14:19:03;12.30;99.90
20432;DHT22;10375;49.136;10.366;2023-04-24T14:21:32;12.40;99.90
20432;DHT22;10375;49.136;10.366;2023-04-24T14:24:00;12.80;99.90
20432;DHT22;10375;49.136;10.366;2023-04-24T14:26:27;13.40;99.90
20432;DHT22;10375;49.136;10.366;2023-04-24T14:28:54;13.70;99.90
20432;DHT22;10375;49.136;10.366;2023-04-24T14:31:36;13.80;99.90
20432;DHT22;10375;49.136;10.366;2023-04-24T14:34:04;13.80;99.90
20432;DHT22;10375;49.136;10.366;2023-04-24T14:36:31;13.90;99.90
20432;DHT22;10375;49.136;10.366;2023-04-24T14:38:58;14.20;99.90
20432;DHT22;10375;49.136;10.366;2023-04-24T14:41:25;14.30;99.90
20432;DHT22;10375;49.136;10.366;2023-04-24T14:43:52;14.10;99.90
20432;DHT22;10375;49.136;10.366;2023-04-24T14:46:19;13.70;99.90
20432;DHT22;10375;49.136;10.366;2023-04-24T14:48:47;13.90;99.90
20432;DHT22;10375;49.136;10.366;2023-04-24T14:51:14;14.10;99.10
20432;DHT22;10375;49.136;10.366;2023-04-24T14:53:41;14.00;99.00
20432;DHT22;10375;49.136;10.366;2023-04-24T14:56:08;14.00;99.80
20432;DHT22;10375;49.136;10.366;2023-04-24T14:58:35;13.60;99.90
20432;DHT22;10375;49.136;10.366;2023-04-24T15:01:02;13.20;99.90
20432;DHT22;10375;49.136;10.366;2023-04-24T15:03:29;12.90;99.90
20432;DHT22;10375;49.136;10.366;2023-04-24T15:05:58;12.60;99.90
20432;DHT22;10375;49.136;10.366;2023-04-24T15:08:25;12.40;99.90
20432;DHT22;10375;49.136;10.366;2023-04-24T15:10:52;12.20;99.90
20432;DHT22;10375;49.136;10.366;2023-04-24T15:13:19;12.10;99.90
20432;DHT22;10375;49.136;10.366;2023-04-24T15:15:46;12.20;99.90
20432;DHT22;10375;49.136;10.366;2023-04-24T15:18:14;12.20;99.90
20432;DHT22;10375;49.136;10.366;2023-04-24T15:20:41;12.00;99.90
20432;DHT22;10375;49.136;10.366;2023-04-24T15:23:09;12.10;99.90
20432;DHT22;10375;49.136;10.366;2023-04-24T15:25:37;12.30;99.90
20432;DHT22;10375;49.136;10.366;2023-04-24T15:28:05;12.60;99.90
20432;DHT22;10375;49.136;10.366;2023-04-24T15:30:32;13.00;99.90
20432;DHT22;10375;49.136;10.366;2023-04-24T15:33:00;13.40;99.90
20432;DHT22;10375;49.136;10.366;2023-04-24T15:35:30;13.90;99.90
20432;DHT22;10375;49.136;10.366;2023-04-24T15:37:57;14.10;99.90
20432;DHT22;10375;49.136;10.366;2023-04-24T15:40:24;14.10;99.70